Terminal Aerodrome Forecast
Issued by NWS

Home | Current Version | Previous Version | Text Only | Print | Product List | Glossary On
Versions: 1 2 3 4 5 6 7 8 9 10 11 12 13 14 15 16 17 18 19 20
000
FTUS43 KFGF 030520
TAFBJI
TAF
KBJI 030520Z 0306/0406 14006KT P6SM SKC
      TEMPO 0306/0309 BKN010
     FM030900 12006KT P6SM BKN008
      TEMPO 0309/0312 2SM BR
     FM031500 13012KT P6SM SCT015=

USA.gov is the U.S. government's official web portal to all federal, state and local government web resources and services.